Time;durP1;ratioP1;P1;durP2;ratioP2;P2;SDS_P1;SDS_P2;PMS_P1;PMS_P2;Temp;Humidity;BMP_temperature;BMP_pressure;BME280_temperature;BME280_humidity;BME280_pressure;Samples;Min_cycle;Max_cycle;Signal;HPM_P1;HPM_P2
2024/02/26 00:04:38;;;;;;;9.90;6.70;;;;;;;;;;10354096;28;20496;-86
2024/02/26 00:09:41;;;;;;;9.20;6.63;;;;;;;;;;10336916;28;20460;-86
2024/02/26 00:14:45;;;;;;;8.90;6.53;;;;;;;;;;10350249;28;20461;-86
2024/02/26 00:19:48;;;;;;;8.97;6.20;;;;;;;;;;10349065;28;20458;-87
2024/02/26 00:24:51;;;;;;;8.20;6.23;;;;;;;;;;10352795;28;20819;-85
2024/02/26 00:29:54;;;;;;;9.75;6.18;;;;;;;;;;10347303;28;20428;-86
2024/02/26 00:34:56;;;;;;;10.98;6.88;;;;;;;;;;10355340;28;20958;-86
2024/02/26 00:40:00;;;;;;;10.20;6.60;;;;;;;;;;10352768;28;20413;-86
2024/02/26 00:45:03;;;;;;;10.55;7.00;;;;;;;;;;10352497;28;20444;-86
2024/02/26 00:50:07;;;;;;;8.80;6.38;;;;;;;;;;10361367;28;20427;-86
2024/02/26 00:55:11;;;;;;;11.73;6.35;;;;;;;;;;10348104;28;20480;-86
2024/02/26 01:00:14;;;;;;;7.90;5.88;;;;;;;;;;10356732;28;20470;-87
2024/02/26 01:05:17;;;;;;;8.50;6.03;;;;;;;;;;10356203;28;20457;-85
2024/02/26 01:10:21;;;;;;;9.52;6.15;;;;;;;;;;10356520;28;20427;-86
2024/02/26 01:15:23;;;;;;;8.50;6.13;;;;;;;;;;10353568;28;20407;-86
2024/02/26 01:20:26;;;;;;;11.02;6.63;;;;;;;;;;10344105;28;20416;-86
2024/02/26 01:25:30;;;;;;;8.37;5.67;;;;;;;;;;10352064;28;20420;-86
2024/02/26 01:30:32;;;;;;;7.27;5.50;;;;;;;;;;10353169;28;20455;-85
2024/02/26 01:35:35;;;;;;;7.78;5.05;;;;;;;;;;10347979;28;20415;-86
2024/02/26 01:40:40;;;;;;;6.63;4.53;;;;;;;;;;10351013;28;20419;-86
2024/02/26 01:45:42;;;;;;;7.50;4.70;;;;;;;;;;10343868;28;20751;-86
2024/02/26 01:50:44;;;;;;;9.20;6.05;;;;;;;;;;10356907;28;20837;-86
2024/02/26 01:55:48;;;;;;;7.43;5.10;;;;;;;;;;10333249;28;20445;-86
2024/02/26 02:00:51;;;;;;;7.93;5.47;;;;;;;;;;10348351;28;20574;-87
2024/02/26 02:05:53;;;;;;;9.50;6.07;;;;;;;;;;10348501;28;20416;-87
2024/02/26 02:10:58;;;;;;;7.55;5.70;;;;;;;;;;10348872;28;20521;-87
2024/02/26 02:16:00;;;;;;;8.73;6.00;;;;;;;;;;10346251;28;20502;-86
2024/02/26 02:21:05;;;;;;;9.10;6.03;;;;;;;;;;10351371;28;20771;-85
2024/02/26 02:26:07;;;;;;;8.07;6.18;;;;;;;;;;10356537;28;20403;-86
2024/02/26 02:31:10;;;;;;;10.18;6.45;;;;;;;;;;10357544;28;20528;-86
2024/02/26 02:36:14;;;;;;;9.80;6.10;;;;;;;;;;10362510;28;20530;-85
2024/02/26 02:41:16;;;;;;;8.70;6.03;;;;;;;;;;10358780;28;20417;-86
2024/02/26 02:46:18;;;;;;;9.93;6.30;;;;;;;;;;10359635;28;20404;-85
2024/02/26 02:51:22;;;;;;;9.27;5.93;;;;;;;;;;10353196;28;20521;-86
2024/02/26 02:56:25;;;;;;;7.07;5.50;;;;;;;;;;10349741;28;20510;-86
2024/02/26 03:01:27;;;;;;;8.07;5.60;;;;;;;;;;10344476;28;20499;-85
2024/02/26 03:06:31;;;;;;;8.10;5.80;;;;;;;;;;10345551;28;20446;-86
2024/02/26 03:11:33;;;;;;;9.13;5.83;;;;;;;;;;10351300;28;20543;-87
2024/02/26 03:16:35;;;;;;;7.90;6.00;;;;;;;;;;10348208;28;20415;-86
2024/02/26 03:21:39;;;;;;;10.90;6.28;;;;;;;;;;10343805;28;20473;-86
2024/02/26 03:26:41;;;;;;;8.52;5.50;;;;;;;;;;10345220;28;20411;-86
2024/02/26 03:31:44;;;;;;;8.03;5.70;;;;;;;;;;10347658;28;21135;-85
2024/02/26 03:36:47;;;;;;;10.40;6.20;;;;;;;;;;10350741;28;20871;-86
2024/02/26 03:41:50;;;;;;;7.78;5.95;;;;;;;;;;10361711;28;20415;-85
2024/02/26 03:46:52;;;;;;;9.10;6.13;;;;;;;;;;10363814;28;20505;-86
2024/02/26 03:51:56;;;;;;;8.63;6.00;;;;;;;;;;10358582;28;20929;-86
2024/02/26 03:56:58;;;;;;;7.50;5.40;;;;;;;;;;10351189;28;20423;-85
2024/02/26 04:02:02;;;;;;;8.23;5.40;;;;;;;;;;10355969;28;20473;-87
2024/02/26 04:07:06;;;;;;;6.97;5.50;;;;;;;;;;10347393;28;20967;-87
2024/02/26 04:12:08;;;;;;;7.75;5.43;;;;;;;;;;10356917;28;20577;-86
2024/02/26 04:17:11;;;;;;;6.50;5.07;;;;;;;;;;10348425;28;20414;-87
2024/02/26 04:22:15;;;;;;;8.48;5.82;;;;;;;;;;10349753;28;20841;-87
2024/02/26 04:27:17;;;;;;;6.10;5.00;;;;;;;;;;10348340;28;20508;-86
2024/02/26 04:32:19;;;;;;;7.57;4.97;;;;;;;;;;10359883;28;20463;-86
2024/02/26 04:37:23;;;;;;;8.63;5.03;;;;;;;;;;10354659;28;20440;-86
2024/02/26 04:42:25;;;;;;;6.88;4.80;;;;;;;;;;10352581;28;20414;-86
2024/02/26 04:47:28;;;;;;;7.55;5.20;;;;;;;;;;10351272;28;20964;-87
2024/02/26 04:52:31;;;;;;;7.60;4.83;;;;;;;;;;10356590;28;20470;-86
2024/02/26 04:57:34;;;;;;;6.15;4.88;;;;;;;;;;10351781;28;20464;-86
2024/02/26 05:02:38;;;;;;;6.43;4.93;;;;;;;;;;10349646;28;20971;-86
2024/02/26 05:07:43;;;;;;;8.00;5.47;;;;;;;;;;10348589;28;20403;-87
2024/02/26 05:12:45;;;;;;;11.17;7.20;;;;;;;;;;10348369;28;20481;-86
2024/02/26 05:17:48;;;;;;;9.70;5.57;;;;;;;;;;10348504;28;20568;-86
2024/02/26 05:22:52;;;;;;;6.28;4.65;;;;;;;;;;10345938;28;20409;-86
2024/02/26 05:27:54;;;;;;;7.35;4.60;;;;;;;;;;10345478;28;20948;-86
2024/02/26 05:32:56;;;;;;;6.63;5.10;;;;;;;;;;10342858;28;20433;-86
2024/02/26 05:38:00;;;;;;;7.03;4.78;;;;;;;;;;10350657;28;20453;-86
2024/02/26 05:43:02;;;;;;;7.20;4.57;;;;;;;;;;10342065;28;20415;-86
2024/02/26 05:48:06;;;;;;;7.45;4.68;;;;;;;;;;10343884;28;20415;-86
2024/02/26 05:53:09;;;;;;;6.57;4.43;;;;;;;;;;10344875;28;20473;-87
2024/02/26 05:58:12;;;;;;;7.55;4.57;;;;;;;;;;10342442;28;20971;-87
2024/02/26 06:03:14;;;;;;;6.53;4.82;;;;;;;;;;10346432;28;20407;-86
2024/02/26 06:08:18;;;;;;;7.70;5.00;;;;;;;;;;10353385;28;20409;-87
2024/02/26 06:13:20;;;;;;;14.43;6.00;;;;;;;;;;10356120;28;20460;-87
2024/02/26 06:18:23;;;;;;;7.97;5.47;;;;;;;;;;10357151;28;20414;-87
2024/02/26 06:23:27;;;;;;;10.63;5.70;;;;;;;;;;10346546;28;20408;-87
2024/02/26 06:28:32;;;;;;;9.97;5.60;;;;;;;;;;10342438;28;20528;-86
2024/02/26 06:33:34;;;;;;;8.10;5.10;;;;;;;;;;10360286;28;20919;-86
2024/02/26 06:38:38;;;;;;;9.40;6.07;;;;;;;;;;10347261;28;20416;-87
2024/02/26 06:43:43;;;;;;;7.25;5.53;;;;;;;;;;10366112;28;20468;-86
2024/02/26 06:48:45;;;;;;;10.20;5.40;;;;;;;;;;10362651;28;20411;-89
2024/02/26 06:53:50;;;;;;;8.90;5.53;;;;;;;;;;10364044;28;20415;-89
2024/02/26 06:58:52;;;;;;;7.85;5.68;;;;;;;;;;10368805;28;20412;-88
2024/02/26 07:03:54;;;;;;;6.83;5.17;;;;;;;;;;10358823;28;20439;-89
2024/02/26 07:08:58;;;;;;;7.67;5.77;;;;;;;;;;10346368;28;20452;-89
2024/02/26 07:14:01;;;;;;;8.75;6.22;;;;;;;;;;10351056;28;20403;-89
2024/02/26 07:19:04;;;;;;;9.77;5.95;;;;;;;;;;10364284;28;20408;-89
2024/02/26 07:24:08;;;;;;;9.33;5.70;;;;;;;;;;10358074;28;20561;-90
2024/02/26 07:29:10;;;;;;;9.10;6.90;;;;;;;;;;10374407;28;20419;-89
2024/02/26 07:34:13;;;;;;;18.60;9.05;;;;;;;;;;10359003;28;20432;-89
2024/02/26 07:39:17;;;;;;;10.35;6.90;;;;;;;;;;10355998;28;20739;-89
2024/02/26 07:44:19;;;;;;;10.00;6.40;;;;;;;;;;10351902;28;20475;-89
2024/02/26 07:49:22;;;;;;;10.25;5.57;;;;;;;;;;10355935;23;20417;-92
2024/02/26 07:54:26;;;;;;;11.60;6.80;;;;;;;;;;10338753;28;20401;-91
2024/02/26 07:59:29;;;;;;;8.88;5.63;;;;;;;;;;10341120;28;20958;-92
2024/02/26 08:04:31;;;;;;;8.38;5.22;;;;;;;;;;10338684;28;20417;-92
2024/02/26 08:09:35;;;;;;;8.07;5.07;;;;;;;;;;10340573;28;20432;-93
2024/02/26 08:14:37;;;;;;;8.05;5.60;;;;;;;;;;10352555;28;20415;-93
2024/02/26 08:19:39;;;;;;;11.73;5.35;;;;;;;;;;10347048;28;20413;-90
2024/02/26 08:24:43;;;;;;;9.25;4.53;;;;;;;;;;10363938;28;20408;-91
2024/02/26 08:29:46;;;;;;;6.85;4.57;;;;;;;;;;10343383;28;21028;-91
2024/02/26 08:34:48;;;;;;;7.43;3.90;;;;;;;;;;10343452;28;20399;-90
2024/02/26 08:39:54;;;;;;;7.35;4.20;;;;;;;;;;10354187;28;21306;-92
2024/02/26 08:44:56;;;;;;;6.87;4.33;;;;;;;;;;10343417;28;20505;-90
2024/02/26 08:49:58;;;;;;;10.15;4.40;;;;;;;;;;10341640;28;20428;-91
2024/02/26 08:55:06;;;;;;;5.25;3.92;;;;;;;;;;10340031;28;21158;-90
2024/02/26 09:00:09;;;;;;;9.25;4.13;;;;;;;;;;10349353;28;20459;-90
2024/02/26 09:05:12;;;;;;;7.30;4.10;;;;;;;;;;10343057;28;20953;-91
2024/02/26 09:10:18;;;;;;;9.18;3.95;;;;;;;;;;10348964;28;20463;-91
2024/02/26 09:15:20;;;;;;;6.97;4.57;;;;;;;;;;10343286;28;20413;-91
2024/02/26 09:20:23;;;;;;;7.27;4.03;;;;;;;;;;10347972;28;20407;-90
2024/02/26 09:25:27;;;;;;;6.72;4.25;;;;;;;;;;10354001;28;20436;-87
2024/02/26 09:30:30;;;;;;;9.85;4.28;;;;;;;;;;10362315;28;20421;-91
2024/02/26 09:35:32;;;;;;;7.95;4.57;;;;;;;;;;10341052;28;20421;-91
2024/02/26 09:40:37;;;;;;;6.72;4.47;;;;;;;;;;10345808;28;20416;-90
2024/02/26 09:45:39;;;;;;;6.28;4.10;;;;;;;;;;10356768;28;20890;-91
2024/02/26 09:50:43;;;;;;;8.18;4.35;;;;;;;;;;10337432;28;20941;-92
2024/02/26 09:55:47;;;;;;;6.35;3.65;;;;;;;;;;10346986;28;20411;-90
2024/02/26 10:00:56;;;;;;;5.47;4.10;;;;;;;;;;10347997;28;20415;-92
2024/02/26 10:06:06;;;;;;;5.55;3.70;;;;;;;;;;10343049;28;20461;-91
2024/02/26 10:11:11;;;;;;;7.87;3.70;;;;;;;;;;10338972;28;20434;-89
2024/02/26 10:16:13;;;;;;;4.97;3.67;;;;;;;;;;10340235;28;20409;-90
2024/02/26 10:21:17;;;;;;;7.63;4.47;;;;;;;;;;10332968;28;20447;-91
2024/02/26 10:26:21;;;;;;;7.63;4.07;;;;;;;;;;10348571;28;20431;-91
2024/02/26 10:31:25;;;;;;;6.93;3.77;;;;;;;;;;10338228;28;20437;-91
2024/02/26 10:36:28;;;;;;;7.72;4.10;;;;;;;;;;10343349;28;20532;-90
2024/02/26 10:41:31;;;;;;;7.32;4.00;;;;;;;;;;10345290;28;20436;-91
2024/02/26 10:46:34;;;;;;;8.80;4.40;;;;;;;;;;10372734;28;20424;-90
2024/02/26 10:51:39;;;;;;;9.23;4.78;;;;;;;;;;10350697;28;20430;-90
2024/02/26 10:56:43;;;;;;;7.22;4.28;;;;;;;;;;10346672;28;20417;-94
2024/02/26 11:01:46;;;;;;;8.43;4.22;;;;;;;;;;10357822;28;20421;-91
2024/02/26 11:06:51;;;;;;;6.28;4.28;;;;;;;;;;10346578;28;20467;-91
2024/02/26 11:11:55;;;;;;;5.47;4.00;;;;;;;;;;10345720;28;20483;-91
2024/02/26 11:16:59;;;;;;;6.57;4.10;;;;;;;;;;10345780;28;20456;-91
2024/02/26 11:22:02;;;;;;;7.97;4.13;;;;;;;;;;10341727;28;20413;-94
2024/02/26 11:27:06;;;;;;;6.17;3.90;;;;;;;;;;10343368;28;20420;-90
2024/02/26 11:32:09;;;;;;;5.63;3.97;;;;;;;;;;10339662;28;20421;-91
2024/02/26 11:37:12;;;;;;;7.38;3.90;;;;;;;;;;10343605;28;20417;-93
2024/02/26 11:42:17;;;;;;;3.30;2.88;;;;;;;;;;10337745;28;20413;-92
2024/02/26 11:47:20;;;;;;;3.63;3.00;;;;;;;;;;10336413;28;20413;-86
2024/02/26 11:52:23;;;;;;;5.53;2.97;;;;;;;;;;10351390;28;20432;-91
2024/02/26 11:57:28;;;;;;;5.18;3.85;;;;;;;;;;10349554;28;20460;-93
2024/02/26 12:02:41;;;;;;;5.50;3.50;;;;;;;;;;10371600;28;20415;-91
2024/02/26 12:07:46;;;;;;;5.85;3.03;;;;;;;;;;10354001;28;20444;-92
2024/02/26 12:12:50;;;;;;;6.40;3.00;;;;;;;;;;10334327;28;20518;-93
2024/02/26 12:17:54;;;;;;;4.50;2.70;;;;;;;;;;10356275;28;20470;-92
2024/02/26 12:22:57;;;;;;;4.28;3.40;;;;;;;;;;10339900;28;20953;-92
2024/02/26 12:28:01;;;;;;;6.97;3.20;;;;;;;;;;10335119;28;20411;-92
2024/02/26 12:33:04;;;;;;;7.80;3.50;;;;;;;;;;10339997;28;20421;-91
2024/02/26 12:38:06;;;;;;;5.68;3.22;;;;;;;;;;10338004;28;20469;-91
2024/02/26 12:43:12;;;;;;;4.82;3.22;;;;;;;;;;10335920;28;20457;-91
2024/02/26 12:48:15;;;;;;;4.75;3.10;;;;;;;;;;10333685;28;20417;-93
2024/02/26 12:53:18;;;;;;;5.50;3.63;;;;;;;;;;10335447;28;20895;-91
2024/02/26 12:58:24;;;;;;;6.20;3.30;;;;;;;;;;10341570;28;20965;-93
2024/02/26 13:03:27;;;;;;;5.05;3.13;;;;;;;;;;10334938;28;20485;-93
2024/02/26 13:08:30;;;;;;;5.80;3.33;;;;;;;;;;10339158;28;20935;-93
2024/02/26 13:13:33;;;;;;;4.50;3.13;;;;;;;;;;10340722;28;20494;-93
2024/02/26 13:18:36;;;;;;;4.95;3.15;;;;;;;;;;10352365;28;20441;-93
2024/02/26 13:23:39;;;;;;;4.05;2.88;;;;;;;;;;10352336;28;20471;-93
2024/02/26 13:28:43;;;;;;;4.28;2.42;;;;;;;;;;10339721;28;20469;-94
2024/02/26 13:33:48;;;;;;;4.40;2.22;;;;;;;;;;10373262;28;20427;-92
2024/02/26 13:38:54;;;;;;;4.20;2.60;;;;;;;;;;10352546;28;20441;-93
2024/02/26 13:43:58;;;;;;;4.78;2.70;;;;;;;;;;10340219;28;20413;-93
2024/02/26 13:49:01;;;;;;;4.82;2.35;;;;;;;;;;10351233;28;20446;-93
2024/02/26 13:54:03;;;;;;;3.67;2.75;;;;;;;;;;10348910;28;20467;-93
2024/02/26 13:59:07;;;;;;;5.40;2.85;;;;;;;;;;10347731;28;20414;-92
2024/02/26 14:04:10;;;;;;;5.13;3.17;;;;;;;;;;10337334;28;20465;-94
2024/02/26 14:09:18;;;;;;;5.05;3.20;;;;;;;;;;10357906;28;20411;-93
2024/02/26 14:14:22;;;;;;;6.00;2.67;;;;;;;;;;10339388;28;20539;-94
2024/02/26 14:19:24;;;;;;;5.78;2.70;;;;;;;;;;10347313;28;20481;-90
2024/02/26 14:24:26;;;;;;;2.85;2.40;;;;;;;;;;10349832;28;20452;-93
2024/02/26 14:29:30;;;;;;;5.63;2.80;;;;;;;;;;10352967;28;20409;-94
2024/02/26 14:34:33;;;;;;;5.37;3.20;;;;;;;;;;10366402;28;20956;-92
2024/02/26 14:39:35;;;;;;;6.50;3.40;;;;;;;;;;10381059;28;20463;-93
2024/02/26 14:44:39;;;;;;;8.50;3.70;;;;;;;;;;10346211;28;20396;-93
2024/02/26 14:49:41;;;;;;;5.80;3.63;;;;;;;;;;10363632;28;20411;-92
2024/02/26 14:54:44;;;;;;;7.87;3.80;;;;;;;;;;10364167;28;20515;-93
2024/02/26 14:59:50;;;;;;;2.80;1.30;;;;;;;;;;10353235;28;20473;-93
2024/02/26 15:04:53;;;;;;;6.35;2.35;;;;;;;;;;10349162;28;20440;-92
2024/02/26 15:09:57;;;;;;;6.10;4.38;;;;;;;;;;10358930;28;20719;-92
2024/02/26 15:15:01;;;;;;;6.65;4.20;;;;;;;;;;10351067;28;20451;-93
2024/02/26 15:20:10;;;;;;;8.35;4.57;;;;;;;;;;10349661;28;20413;-92
2024/02/26 15:25:13;;;;;;;9.32;6.13;;;;;;;;;;10343034;28;20478;-92
2024/02/26 15:30:17;;;;;;;8.98;5.00;;;;;;;;;;10334707;28;20412;-92
2024/02/26 15:35:20;;;;;;;7.18;5.00;;;;;;;;;;10343219;28;20516;-95
2024/02/26 15:40:22;;;;;;;8.23;4.93;;;;;;;;;;10343362;28;20409;-93
2024/02/26 15:45:28;;;;;;;8.53;4.60;;;;;;;;;;10339484;28;20413;-94
2024/02/26 15:50:30;;;;;;;7.32;4.15;;;;;;;;;;10345741;28;20405;-91
2024/02/26 15:55:33;;;;;;;6.88;4.18;;;;;;;;;;10371105;28;20417;-93
2024/02/26 16:00:40;;;;;;;7.00;4.35;;;;;;;;;;10340547;28;20405;-91
2024/02/26 16:05:42;;;;;;;5.20;3.75;;;;;;;;;;10338451;28;20484;-91
2024/02/26 16:10:45;;;;;;;5.67;3.80;;;;;;;;;;10343267;28;20965;-92
2024/02/26 16:15:54;;;;;;;6.60;4.13;;;;;;;;;;10332526;28;20899;-91
2024/02/26 16:20:57;;;;;;;6.83;3.17;;;;;;;;;;10331730;28;20822;-94
2024/02/26 16:25:59;;;;;;;6.03;3.47;;;;;;;;;;10331114;28;20412;-92
2024/02/26 16:31:03;;;;;;;5.32;4.00;;;;;;;;;;10328240;28;20425;-91
2024/02/26 16:36:06;;;;;;;7.77;4.43;;;;;;;;;;10320501;28;20420;-93
2024/02/26 16:41:08;;;;;;;7.00;4.27;;;;;;;;;;10329547;28;20436;-94
2024/02/26 16:46:15;;;;;;;8.25;5.40;;;;;;;;;;10325960;28;20413;-93
2024/02/26 16:51:17;;;;;;;10.70;6.50;;;;;;;;;;10341001;28;20878;-93
2024/02/26 16:56:19;;;;;;;10.68;5.70;;;;;;;;;;10340801;28;20515;-93
2024/02/26 17:01:23;;;;;;;7.43;5.15;;;;;;;;;;10350608;28;20421;-91
2024/02/26 17:06:26;;;;;;;5.40;4.00;;;;;;;;;;10335572;28;20413;-91
2024/02/26 17:11:30;;;;;;;6.20;3.50;;;;;;;;;;10355969;28;20442;-90
2024/02/26 17:16:36;;;;;;;5.70;3.70;;;;;;;;;;10354480;28;20584;-92
2024/02/26 17:21:38;;;;;;;4.20;3.80;;;;;;;;;;10344747;28;20482;-89
2024/02/26 17:26:41;;;;;;;6.23;3.53;;;;;;;;;;10336193;28;20903;-92
2024/02/26 17:31:46;;;;;;;5.05;3.53;;;;;;;;;;10334162;28;20419;-92
2024/02/26 17:36:48;;;;;;;5.00;4.00;;;;;;;;;;10344605;28;20460;-91
2024/02/26 17:41:51;;;;;;;4.65;2.92;;;;;;;;;;10337586;28;20424;-89
2024/02/26 17:46:55;;;;;;;5.30;3.05;;;;;;;;;;10338044;28;20421;-93
2024/02/26 17:51:57;;;;;;;5.75;3.22;;;;;;;;;;10334877;28;20436;-93
2024/02/26 17:57:00;;;;;;;5.22;3.20;;;;;;;;;;10338361;28;20485;-92
2024/02/26 18:02:04;;;;;;;5.27;3.70;;;;;;;;;;10340766;28;20903;-94
2024/02/26 18:07:08;;;;;;;4.45;3.30;;;;;;;;;;10344053;28;20434;-93
2024/02/26 18:12:15;;;;;;;6.43;3.30;;;;;;;;;;10337413;28;20953;-93
2024/02/26 18:17:22;;;;;;;7.05;5.07;;;;;;;;;;10333451;28;20452;-91
2024/02/26 18:22:24;;;;;;;5.65;4.28;;;;;;;;;;10335077;28;20424;-90
2024/02/26 18:27:27;;;;;;;4.97;3.80;;;;;;;;;;10351652;28;20421;-89
2024/02/26 18:32:34;;;;;;;6.40;4.30;;;;;;;;;;10338160;28;20427;-87
2024/02/26 18:37:37;;;;;;;9.93;6.90;;;;;;;;;;10335754;28;20552;-89
2024/02/26 18:42:39;;;;;;;6.55;4.90;;;;;;;;;;10333503;28;20428;-89
2024/02/26 18:47:43;;;;;;;4.60;3.75;;;;;;;;;;10330037;28;20479;-89
2024/02/26 18:52:47;;;;;;;4.45;3.20;;;;;;;;;;10332554;28;20482;-89
2024/02/26 18:57:50;;;;;;;4.53;2.72;;;;;;;;;;10336470;28;20413;-89
2024/02/26 19:02:54;;;;;;;3.75;2.60;;;;;;;;;;10333293;28;20424;-90
2024/02/26 19:07:58;;;;;;;4.07;2.67;;;;;;;;;;10324290;28;20413;-89
2024/02/26 19:13:00;;;;;;;3.75;2.67;;;;;;;;;;10333032;28;20478;-89
2024/02/26 19:18:06;;;;;;;3.45;2.40;;;;;;;;;;10341375;28;20966;-89
2024/02/26 19:23:09;;;;;;;2.38;2.05;;;;;;;;;;10332874;28;20909;-88
2024/02/26 19:28:12;;;;;;;3.90;2.25;;;;;;;;;;10323346;28;20421;-89
2024/02/26 19:33:16;;;;;;;3.60;2.40;;;;;;;;;;10341416;28;20421;-87
2024/02/26 19:38:19;;;;;;;2.92;1.77;;;;;;;;;;10335970;28;20475;-88
2024/02/26 19:43:21;;;;;;;3.33;2.00;;;;;;;;;;10328615;28;20540;-88
2024/02/26 19:48:25;;;;;;;1.97;1.57;;;;;;;;;;10335699;28;20880;-89
2024/02/26 19:53:27;;;;;;;2.33;1.80;;;;;;;;;;10331156;28;20569;-86
2024/02/26 19:58:30;;;;;;;2.47;1.90;;;;;;;;;;10336890;28;20839;-89
2024/02/26 20:03:34;;;;;;;1.87;1.67;;;;;;;;;;10330787;28;20417;-89
2024/02/26 20:08:37;;;;;;;2.08;1.70;;;;;;;;;;10326775;28;20487;-88
2024/02/26 20:13:42;;;;;;;3.73;2.10;;;;;;;;;;10336354;28;20429;-90
2024/02/26 20:18:47;;;;;;;3.08;1.63;;;;;;;;;;10313458;28;20604;-89
2024/02/26 20:23:52;;;;;;;2.30;1.60;;;;;;;;;;10329031;28;20417;-90
2024/02/26 20:28:55;;;;;;;3.45;2.10;;;;;;;;;;10329315;28;20409;-89
2024/02/26 20:34:00;;;;;;;3.55;1.90;;;;;;;;;;10327307;28;20989;-89
2024/02/26 20:39:04;;;;;;;2.63;2.00;;;;;;;;;;10325025;28;20475;-89
2024/02/26 20:44:08;;;;;;;3.10;1.80;;;;;;;;;;10327854;28;20916;-90
2024/02/26 20:49:13;;;;;;;3.05;2.20;;;;;;;;;;10325463;28;20409;-90
2024/02/26 20:54:17;;;;;;;2.58;1.20;;;;;;;;;;10330441;28;20561;-89
2024/02/26 20:59:20;;;;;;;2.20;1.40;;;;;;;;;;10331039;28;20436;-90
2024/02/26 21:04:23;;;;;;;4.35;1.40;;;;;;;;;;10337772;28;20663;-90
2024/02/26 21:09:26;;;;;;;2.38;1.27;;;;;;;;;;10322280;28;20420;-89
2024/02/26 21:14:28;;;;;;;1.92;1.40;;;;;;;;;;10327554;28;20429;-90
2024/02/26 21:19:32;;;;;;;1.83;1.25;;;;;;;;;;10334597;28;21555;-90
2024/02/26 21:24:37;;;;;;;1.25;1.08;;;;;;;;;;10330015;28;20467;-90
2024/02/26 21:29:41;;;;;;;1.15;1.00;;;;;;;;;;10332757;28;20413;-90
2024/02/26 21:34:45;;;;;;;2.22;0.93;;;;;;;;;;10331806;28;20423;-90
2024/02/26 21:39:47;;;;;;;2.28;1.15;;;;;;;;;;10327864;28;20487;-90
2024/02/26 21:44:50;;;;;;;3.17;1.65;;;;;;;;;;10325964;28;20451;-90
2024/02/26 21:49:53;;;;;;;1.83;1.20;;;;;;;;;;10339256;28;20420;-90
2024/02/26 21:54:56;;;;;;;1.20;0.82;;;;;;;;;;10325426;28;20475;-90
2024/02/26 21:59:59;;;;;;;1.70;1.10;;;;;;;;;;10323192;28;20404;-90
2024/02/26 22:05:03;;;;;;;1.17;0.93;;;;;;;;;;10331816;28;20414;-90
2024/02/26 22:10:06;;;;;;;1.80;1.15;;;;;;;;;;10331612;28;20429;-90
2024/02/26 22:15:10;;;;;;;1.87;0.90;;;;;;;;;;10327971;28;20431;-88
2024/02/26 22:20:14;;;;;;;1.92;0.80;;;;;;;;;;10336923;28;20473;-88
2024/02/26 22:25:19;;;;;;;1.57;0.70;;;;;;;;;;10343907;28;20466;-86
2024/02/26 22:30:22;;;;;;;1.05;0.70;;;;;;;;;;10336842;28;20417;-88
2024/02/26 22:35:26;;;;;;;2.15;0.82;;;;;;;;;;10325723;28;20449;-88
2024/02/26 22:40:28;;;;;;;0.73;0.50;;;;;;;;;;10338384;28;20491;-88
2024/02/26 22:45:30;;;;;;;1.58;0.52;;;;;;;;;;10329608;28;20487;-84
2024/02/26 22:50:34;;;;;;;1.00;0.50;;;;;;;;;;10335032;28;20453;-87
2024/02/26 22:55:37;;;;;;;0.63;0.47;;;;;;;;;;10332645;28;20456;-84
2024/02/26 23:00:39;;;;;;;0.90;0.50;;;;;;;;;;10343190;28;20416;-88
2024/02/26 23:05:43;;;;;;;0.73;0.57;;;;;;;;;;10344309;28;20447;-87
2024/02/26 23:10:46;;;;;;;0.38;0.38;;;;;;;;;;10345043;28;20421;-87
2024/02/26 23:15:52;;;;;;;1.00;0.65;;;;;;;;;;10343172;28;20432;-87
2024/02/26 23:20:56;;;;;;;1.60;0.77;;;;;;;;;;10350100;28;20484;-87
2024/02/26 23:25:59;;;;;;;2.70;1.00;;;;;;;;;;10346383;28;20824;-86
2024/02/26 23:31:01;;;;;;;1.67;0.80;;;;;;;;;;10346838;28;20961;-87
2024/02/26 23:36:08;;;;;;;0.75;0.70;;;;;;;;;;10342341;28;20460;-88
2024/02/26 23:41:11;;;;;;;1.97;1.00;;;;;;;;;;10342932;28;20417;-87
2024/02/26 23:46:13;;;;;;;1.67;1.10;;;;;;;;;;10341982;28;20399;-87
2024/02/26 23:51:17;;;;;;;2.60;0.90;;;;;;;;;;10341779;28;20479;-88
2024/02/26 23:56:20;;;;;;;3.20;0.98;;;;;;;;;;10352127;28;20436;-88
